Terminal Aerodrome Forecast
Issued by NWS Grand Forks, ND

Home | Current Version | Previous Version | Graphics & Text | Print | Product List | Glossary On
Versions: 1 2 3 4 5 6 7 8 9 10 11 12 13 14 15 16 17 18
924
FTUS43 KFGF 192328
TAFFAR
TAF
KFAR 192328Z 2000/2024 17015KT P6SM FEW130
     FM200100 17013KT 2SM BR SCT020
      TEMPO 2002/2004 3/4SM BR
     FM200400 16010KT 1/2SM FG BKN003
     FM200900 16007KT 3/4SM BR OVC003
     FM201800 15007KT P6SM OVC003=

USA.gov is the U.S. government's official web portal to all federal, state and local government web resources and services.